Time,TemperatureF,DewpointF,PressureIn,WindDirection,WindDirectionDegrees,WindSpeedMPH,WindSpeedGustMPH,Humidity,HourlyPrecipIn,Conditions,Clouds,dailyrainin,SoftwareType,DateUTC
2013-06-03 00:02:00,49.1,34.1,30.05,North,0,0.0,1.6,56,0.00,,,0.00,WUHU216HW,2013-06-03 07:02:00,
2013-06-03 00:07:00,49.1,34.1,30.05,North,0,0.0,0.7,56,0.00,,,0.00,WUHU216HW,2013-06-03 07:07:00,
2013-06-03 00:12:00,48.4,34.3,30.05,North,0,0.0,0.7,58,0.00,,,0.00,WUHU216HW,2013-06-03 07:12:00,
2013-06-03 00:17:00,47.7,33.7,30.05,North,0,0.4,0.7,58,0.00,,,0.00,WUHU216HW,2013-06-03 07:17:00,
2013-06-03 00:22:00,47.9,33.9,30.05,North,0,0.0,0.7,58,0.00,,,0.00,WUHU216HW,2013-06-03 07:22:00,
2013-06-03 00:28:00,47.3,33.8,30.05,North,0,0.2,0.4,59,0.00,,,0.00,WUHU216HW,2013-06-03 07:28:00,
2013-06-03 00:33:00,47.3,33.8,30.05,North,0,0.0,0.4,59,0.00,,,0.00,WUHU216HW,2013-06-03 07:33:00,
2013-06-03 00:38:00,47.5,33.5,30.05,North,0,0.0,0.4,58,0.00,,,0.00,WUHU216HW,2013-06-03 07:38:00,
2013-06-03 00:43:00,47.2,33.6,30.05,North,0,0.9,0.9,59,0.00,,,0.00,WUHU216HW,2013-06-03 07:43:00,
2013-06-03 00:48:00,47.0,33.8,30.05,North,0,0.0,1.1,60,0.00,,,0.00,WUHU216HW,2013-06-03 07:48:00,
2013-06-03 00:53:00,47.0,33.8,30.05,WNW,293,0.7,1.1,60,0.00,,,0.00,WUHU216HW,2013-06-03 07:53:00,
2013-06-03 00:58:00,46.6,33.5,30.05,WNW,293,0.0,0.7,60,0.00,,,0.00,WUHU216HW,2013-06-03 07:58:00,
2013-06-03 01:03:00,46.4,33.3,30.05,NNW,338,0.0,0.4,60,0.00,,,0.00,WUHU216HW,2013-06-03 08:03:00,
2013-06-03 01:08:00,46.3,33.6,30.05,West,270,0.7,0.7,61,0.00,,,0.00,WUHU216HW,2013-06-03 08:08:00,
2013-06-03 01:13:00,45.7,32.7,30.05,WNW,293,0.2,0.9,60,0.00,,,0.00,WUHU216HW,2013-06-03 08:13:00,
2013-06-03 01:18:00,45.2,32.6,30.05,West,270,0.0,0.9,61,0.00,,,0.00,WUHU216HW,2013-06-03 08:18:00,
2013-06-03 01:23:00,45.0,32.4,30.05,West,270,0.0,0.4,61,0.00,,,0.00,WUHU216HW,2013-06-03 08:23:00,
2013-06-03 01:28:00,44.6,32.0,30.05,WNW,293,0.4,0.4,61,0.00,,,0.00,WUHU216HW,2013-06-03 08:28:00,
2013-06-03 01:33:00,44.3,32.0,30.05,WNW,293,0.4,0.9,62,0.00,,,0.00,WUHU216HW,2013-06-03 08:33:00,
2013-06-03 01:38:00,44.3,32.5,30.05,West,270,0.2,0.9,63,0.00,,,0.00,WUHU216HW,2013-06-03 08:38:00,
2013-06-03 01:43:00,43.9,32.1,30.06,WSW,248,1.8,1.8,63,0.00,,,0.00,WUHU216HW,2013-06-03 08:43:00,
2013-06-03 01:48:00,43.4,31.6,30.05,West,270,0.4,1.8,63,0.00,,,0.00,WUHU216HW,2013-06-03 08:48:00,
2013-06-03 01:53:00,43.0,31.2,30.05,WSW,248,0.0,1.1,63,0.00,,,0.00,WUHU216HW,2013-06-03 08:53:00,
2013-06-03 01:58:00,43.0,31.7,30.06,WNW,293,0.9,1.3,64,0.00,,,0.00,WUHU216HW,2013-06-03 08:58:00,
2013-06-03 02:03:00,42.8,31.5,30.05,North,0,1.8,1.8,64,0.00,,,0.00,WUHU216HW,2013-06-03 09:03:00,
2013-06-03 02:08:00,43.2,31.8,30.05,North,0,0.0,1.8,64,0.00,,,0.00,WUHU216HW,2013-06-03 09:08:00,
2013-06-03 02:13:00,43.6,32.1,30.05,North,0,0.0,0.4,64,0.00,,,0.00,WUHU216HW,2013-06-03 09:13:00,
2013-06-03 02:18:00,43.6,32.6,30.05,NNW,338,0.4,0.4,65,0.00,,,0.00,WUHU216HW,2013-06-03 09:18:00,
2013-06-03 02:23:00,43.6,33.0,30.05,NW,315,0.4,1.6,66,0.00,,,0.00,WUHU216HW,2013-06-03 09:23:00,
2013-06-03 02:28:00,43.6,32.6,30.05,NW,315,0.0,1.6,65,0.00,,,0.00,WUHU216HW,2013-06-03 09:28:00,
2013-06-03 02:33:00,43.9,32.9,30.05,NNW,338,0.0,0.4,65,0.00,,,0.00,WUHU216HW,2013-06-03 09:33:00,
2013-06-03 02:38:00,44.1,33.0,30.05,NNW,338,0.4,0.4,65,0.00,,,0.00,WUHU216HW,2013-06-03 09:38:00,
2013-06-03 02:43:00,44.3,32.9,30.05,NW,315,0.0,0.4,64,0.00,,,0.00,WUHU216HW,2013-06-03 09:43:00,
2013-06-03 02:48:00,44.3,32.9,30.05,NW,315,1.1,1.1,64,0.00,,,0.00,WUHU216HW,2013-06-03 09:48:00,
2013-06-03 02:53:00,44.3,33.2,30.05,NNW,338,0.4,1.3,65,0.00,,,0.00,WUHU216HW,2013-06-03 09:53:00,
2013-06-03 02:58:00,44.5,33.0,30.05,WNW,293,0.2,1.3,64,0.00,,,0.00,WUHU216HW,2013-06-03 09:58:00,
2013-06-03 03:03:00,44.6,33.6,30.05,WNW,293,0.0,0.4,65,0.00,,,0.00,WUHU216HW,2013-06-03 10:03:00,
2013-06-03 03:08:00,44.1,33.0,30.05,NW,315,0.0,0.2,65,0.00,,,0.00,WUHU216HW,2013-06-03 10:08:00,
2013-06-03 03:13:00,43.9,32.9,30.05,NW,315,0.0,0.2,65,0.00,,,0.00,WUHU216HW,2013-06-03 10:13:00,
2013-06-03 03:18:00,43.6,32.6,30.05,NW,315,0.4,0.7,65,0.00,,,0.00,WUHU216HW,2013-06-03 10:18:00,
2013-06-03 03:23:00,43.6,32.6,30.05,NW,315,0.0,1.1,65,0.00,,,0.00,WUHU216HW,2013-06-03 10:23:00,
2013-06-03 03:28:00,43.6,33.0,30.05,West,270,0.9,1.1,66,0.00,,,0.00,WUHU216HW,2013-06-03 10:28:00,
2013-06-03 03:33:00,43.2,32.6,30.05,NW,315,0.4,1.1,66,0.00,,,0.00,WUHU216HW,2013-06-03 10:33:00,
2013-06-03 03:38:00,43.2,33.0,30.05,NNW,338,0.2,1.1,67,0.00,,,0.00,WUHU216HW,2013-06-03 10:38:00,
2013-06-03 03:43:00,43.2,32.6,30.05,NW,315,0.2,1.8,66,0.00,,,0.00,WUHU216HW,2013-06-03 10:43:00,
2013-06-03 03:48:00,43.2,33.0,30.05,North,0,0.2,1.8,67,0.00,,,0.00,WUHU216HW,2013-06-03 10:48:00,
2013-06-03 03:53:00,43.2,33.4,30.05,NW,315,0.4,1.6,68,0.00,,,0.00,WUHU216HW,2013-06-03 10:53:00,
2013-06-03 03:58:00,43.4,34.3,30.05,NW,315,2.7,2.7,70,0.00,,,0.00,WUHU216HW,2013-06-03 10:58:00,
2013-06-03 04:03:00,43.4,33.9,30.05,NW,315,0.4,2.7,69,0.00,,,0.00,WUHU216HW,2013-06-03 11:03:00,
2013-06-03 04:08:00,43.4,33.6,30.05,NW,315,0.0,1.6,68,0.00,,,0.00,WUHU216HW,2013-06-03 11:08:00,
2013-06-03 04:13:00,43.4,33.6,30.05,WNW,293,1.3,1.8,68,0.00,,,0.00,WUHU216HW,2013-06-03 11:13:00,
2013-06-03 04:18:00,43.0,33.2,30.05,NW,315,0.4,1.8,68,0.00,,,0.00,WUHU216HW,2013-06-03 11:18:00,
2013-06-03 04:23:00,42.8,33.0,30.05,NW,315,0.2,1.3,68,0.00,,,0.00,WUHU216HW,2013-06-03 11:23:00,
2013-06-03 04:28:00,42.5,32.7,30.05,NNW,338,0.7,1.3,68,0.00,,,0.00,WUHU216HW,2013-06-03 11:28:00,
2013-06-03 04:33:00,42.3,33.0,30.05,WNW,293,1.6,1.6,69,0.00,,,0.00,WUHU216HW,2013-06-03 11:33:00,
2013-06-03 04:39:00,42.3,33.3,30.05,NW,315,1.8,2.2,70,0.00,,,0.00,WUHU216HW,2013-06-03 11:39:00,
2013-06-03 04:44:00,42.5,33.5,30.05,WSW,248,1.6,2.2,70,0.00,,,0.00,WUHU216HW,2013-06-03 11:44:00,
2013-06-03 04:49:00,42.7,34.0,30.04,WNW,293,1.8,2.5,71,0.00,,,0.00,WUHU216HW,2013-06-03 11:49:00,
2013-06-03 04:54:00,42.7,34.0,30.05,North,0,1.1,2.5,71,0.00,,,0.00,WUHU216HW,2013-06-03 11:54:00,
2013-06-03 04:59:00,42.5,33.5,30.04,North,0,3.8,3.8,70,0.00,,,0.00,WUHU216HW,2013-06-03 11:59:00,
2013-06-03 05:04:00,42.5,33.9,30.04,NW,315,1.6,3.8,71,0.00,,,0.00,WUHU216HW,2013-06-03 12:04:00,
2013-06-03 05:09:00,42.5,33.5,30.04,NW,315,1.8,2.7,70,0.00,,,0.00,WUHU216HW,2013-06-03 12:09:00,
2013-06-03 05:14:00,42.5,33.5,30.04,WNW,293,1.8,1.8,70,0.00,,,0.00,WUHU216HW,2013-06-03 12:14:00,
2013-06-03 05:19:00,42.3,33.3,30.05,West,270,0.2,1.8,70,0.00,,,0.00,WUHU216HW,2013-06-03 12:19:00,
2013-06-03 05:24:00,42.1,33.1,30.04,NW,315,1.8,2.2,70,0.00,,,0.00,WUHU216HW,2013-06-03 12:24:00,
2013-06-03 05:29:00,42.1,33.5,30.05,NW,315,1.1,2.2,71,0.00,,,0.00,WUHU216HW,2013-06-03 12:29:00,
2013-06-03 05:34:00,41.8,32.4,30.04,WSW,248,0.4,1.3,69,0.00,,,0.00,WUHU216HW,2013-06-03 12:34:00,
2013-06-03 05:39:00,41.2,31.9,30.04,North,0,0.4,1.3,69,0.00,,,0.00,WUHU216HW,2013-06-03 12:39:00,
2013-06-03 05:44:00,41.0,32.7,30.04,NW,315,0.9,2.5,72,0.00,,,0.00,WUHU216HW,2013-06-03 12:44:00,
2013-06-03 05:49:00,41.0,32.7,30.04,NW,315,0.0,2.5,72,0.00,,,0.00,WUHU216HW,2013-06-03 12:49:00,
2013-06-03 05:54:00,41.0,33.0,30.04,West,270,0.4,1.8,73,0.00,,,0.00,WUHU216HW,2013-06-03 12:54:00,
2013-06-03 05:59:00,41.0,32.7,30.05,WNW,293,2.0,2.0,72,0.00,,,0.00,WUHU216HW,2013-06-03 12:59:00,
2013-06-03 06:04:00,41.0,32.7,30.04,WSW,248,1.1,2.0,72,0.00,,,0.00,WUHU216HW,2013-06-03 13:04:00,
2013-06-03 06:09:00,40.7,32.3,30.05,WNW,293,1.1,1.3,72,0.00,,,0.00,WUHU216HW,2013-06-03 13:09:00,
2013-06-03 06:14:00,40.5,31.9,30.05,WNW,293,0.0,1.3,71,0.00,,,0.00,WUHU216HW,2013-06-03 13:14:00,
2013-06-03 06:19:00,40.5,31.9,30.05,North,0,0.0,0.7,71,0.00,,,0.00,WUHU216HW,2013-06-03 13:19:00,
2013-06-03 06:24:00,40.7,32.1,30.05,ESE,113,0.0,0.2,71,0.00,,,0.00,WUHU216HW,2013-06-03 13:24:00,
2013-06-03 06:29:00,40.9,32.2,30.05,ESE,113,0.4,0.7,71,0.00,,,0.00,WUHU216HW,2013-06-03 13:29:00,
2013-06-03 06:34:00,41.0,32.7,30.05,North,0,0.4,0.9,72,0.00,,,0.00,WUHU216HW,2013-06-03 13:34:00,
2013-06-03 06:39:00,41.0,32.4,30.05,North,0,0.4,0.9,71,0.00,,,0.00,WUHU216HW,2013-06-03 13:39:00,
2013-06-03 06:44:00,41.2,32.6,30.05,NW,315,0.2,1.3,71,0.00,,,0.00,WUHU216HW,2013-06-03 13:44:00,
2013-06-03 06:49:00,41.4,32.8,30.05,SSW,203,0.7,1.3,71,0.00,,,0.00,WUHU216HW,2013-06-03 13:49:00,
2013-06-03 06:54:00,41.6,33.2,30.05,SSW,203,2.7,2.7,72,0.00,,,0.00,WUHU216HW,2013-06-03 13:54:00,
2013-06-03 06:59:00,41.8,33.4,30.05,West,270,1.1,2.7,72,0.00,,,0.00,WUHU216HW,2013-06-03 13:59:00,
2013-06-03 07:04:00,41.9,33.6,30.05,WSW,248,0.2,2.0,72,0.00,,,0.00,WUHU216HW,2013-06-03 14:04:00,
2013-06-03 07:09:00,42.1,33.5,30.05,SW,225,2.5,2.5,71,0.00,,,0.00,WUHU216HW,2013-06-03 14:09:00,
2013-06-03 07:14:00,42.5,33.9,30.05,SW,225,1.1,3.1,71,0.00,,,0.00,WUHU216HW,2013-06-03 14:14:00,
2013-06-03 07:19:00,42.7,34.3,30.06,West,270,0.9,3.1,72,0.00,,,0.00,WUHU216HW,2013-06-03 14:19:00,
2013-06-03 07:24:00,42.8,34.2,30.05,South,180,1.1,1.1,71,0.00,,,0.00,WUHU216HW,2013-06-03 14:24:00,
2013-06-03 07:30:00,43.2,34.5,30.06,South,180,1.8,1.8,71,0.00,,,0.00,WUHU216HW,2013-06-03 14:30:00,
2013-06-03 07:35:00,43.6,34.8,30.06,SSW,203,1.8,1.8,71,0.00,,,0.00,WUHU216HW,2013-06-03 14:35:00,
2013-06-03 07:40:00,43.7,35.0,30.06,South,180,0.7,2.2,71,0.00,,,0.00,WUHU216HW,2013-06-03 14:40:00,
2013-06-03 07:45:00,44.3,35.5,30.06,SSW,203,0.0,2.2,71,0.00,,,0.00,WUHU216HW,2013-06-03 14:45:00,
2013-06-03 07:50:00,44.5,36.0,30.06,WSW,248,4.3,4.3,72,0.00,,,0.00,WUHU216HW,2013-06-03 14:50:00,
2013-06-03 07:55:00,45.0,36.2,30.06,SW,225,0.7,4.3,71,0.00,,,0.00,WUHU216HW,2013-06-03 14:55:00,
2013-06-03 08:00:00,45.4,36.6,30.06,West,270,3.1,3.1,71,0.00,,,0.00,WUHU216HW,2013-06-03 15:00:00,
2013-06-03 08:05:00,45.5,36.4,30.06,WSW,248,0.4,3.1,70,0.00,,,0.00,WUHU216HW,2013-06-03 15:05:00,
2013-06-03 08:10:00,45.9,36.4,30.06,SSW,203,1.1,2.0,69,0.00,,,0.00,WUHU216HW,2013-06-03 15:10:00,
2013-06-03 08:15:00,46.3,36.7,30.06,South,180,0.0,2.0,69,0.00,,,0.00,WUHU216HW,2013-06-03 15:15:00,
2013-06-03 08:20:00,46.6,37.0,30.06,WSW,248,0.4,1.3,69,0.00,,,0.00,WUHU216HW,2013-06-03 15:20:00,
2013-06-03 08:25:00,47.2,37.2,30.06,WSW,248,0.2,1.8,68,0.00,,,0.00,WUHU216HW,2013-06-03 15:25:00,
2013-06-03 08:30:00,47.5,37.4,30.06,SSE,158,0.2,1.8,68,0.00,,,0.00,WUHU216HW,2013-06-03 15:30:00,
2013-06-03 08:35:00,47.9,37.5,30.06,WSW,248,0.9,2.5,67,0.00,,,0.00,WUHU216HW,2013-06-03 15:35:00,
2013-06-03 08:40:00,48.6,37.7,30.06,SSE,158,0.7,2.5,66,0.00,,,0.00,WUHU216HW,2013-06-03 15:40:00,
2013-06-03 08:45:00,49.0,38.1,30.06,SSW,203,4.5,4.5,66,0.00,,,0.00,WUHU216HW,2013-06-03 15:45:00,
2013-06-03 08:50:00,49.3,38.0,30.07,SSW,203,3.6,4.7,65,0.00,,,0.00,WUHU216HW,2013-06-03 15:50:00,
2013-06-03 08:55:00,50.0,38.4,30.06,NW,315,0.4,4.7,64,0.00,,,0.00,WUHU216HW,2013-06-03 15:55:00,
2013-06-03 09:00:00,50.8,38.6,30.06,WSW,248,2.9,4.7,63,0.00,,,0.00,WUHU216HW,2013-06-03 16:00:00,
2013-06-03 09:05:00,51.3,38.7,30.07,SW,225,2.7,3.6,62,0.00,,,0.00,WUHU216HW,2013-06-03 16:05:00,
2013-06-03 09:10:00,51.8,39.2,30.07,WSW,248,3.8,3.8,62,0.00,,,0.00,WUHU216HW,2013-06-03 16:10:00,
2013-06-03 09:15:00,52.2,38.7,30.06,SW,225,0.7,3.8,60,0.00,,,0.00,WUHU216HW,2013-06-03 16:15:00,
2013-06-03 09:20:00,52.7,39.2,30.07,SW,225,0.9,2.9,60,0.00,,,0.00,WUHU216HW,2013-06-03 16:20:00,
2013-06-03 09:25:00,53.3,39.3,30.06,WSW,248,1.8,2.9,59,0.00,,,0.00,WUHU216HW,2013-06-03 16:25:00,
2013-06-03 09:30:00,53.8,39.9,30.06,SE,135,0.2,2.9,59,0.00,,,0.00,WUHU216HW,2013-06-03 16:30:00,
2013-06-03 09:35:00,54.2,39.3,30.06,SSW,203,0.2,2.9,57,0.00,,,0.00,WUHU216HW,2013-06-03 16:35:00,
2013-06-03 09:40:00,54.5,37.7,30.06,SW,225,1.1,4.0,53,0.00,,,0.00,WUHU216HW,2013-06-03 16:40:00,
2013-06-03 09:45:00,55.1,38.6,30.06,SW,225,1.1,4.5,54,0.00,,,0.00,WUHU216HW,2013-06-03 16:45:00,
2013-06-03 09:50:00,55.6,37.7,30.06,WSW,248,2.2,4.5,51,0.00,,,0.00,WUHU216HW,2013-06-03 16:50:00,
2013-06-03 09:55:00,56.3,38.4,30.06,SSW,203,3.6,3.8,51,0.00,,,0.00,WUHU216HW,2013-06-03 16:55:00,
2013-06-03 10:00:00,56.7,38.8,30.06,NNE,23,1.6,3.8,51,0.00,,,0.00,WUHU216HW,2013-06-03 17:00:00,
2013-06-03 10:05:00,57.1,39.2,30.06,South,180,1.1,2.0,51,0.00,,,0.00,WUHU216HW,2013-06-03 17:05:00,
2013-06-03 10:10:00,57.2,39.3,30.06,NNW,338,0.9,2.2,51,0.00,,,0.00,WUHU216HW,2013-06-03 17:10:00,
2013-06-03 10:15:00,57.4,37.9,30.06,NE,45,1.8,2.5,48,0.00,,,0.00,WUHU216HW,2013-06-03 17:15:00,
2013-06-03 10:20:00,57.8,34.7,30.06,West,270,0.7,3.4,42,0.00,,,0.00,WUHU216HW,2013-06-03 17:20:00,
2013-06-03 10:25:00,58.1,37.4,30.05,SSE,158,2.5,3.4,46,0.00,,,0.00,WUHU216HW,2013-06-03 17:25:00,
2013-06-03 10:30:00,58.7,38.4,30.06,SSW,203,1.8,2.7,47,0.00,,,0.00,WUHU216HW,2013-06-03 17:30:00,
2013-06-03 10:35:00,59.0,38.8,30.05,SE,135,2.5,2.5,47,0.00,,,0.00,WUHU216HW,2013-06-03 17:35:00,
2013-06-03 10:40:00,59.2,39.0,30.05,South,180,0.9,3.4,47,0.00,,,0.00,WUHU216HW,2013-06-03 17:40:00,
2013-06-03 10:45:00,59.8,39.4,30.05,SSW,203,1.1,3.8,47,0.00,,,0.00,WUHU216HW,2013-06-03 17:45:00,
2013-06-03 10:50:00,60.1,39.8,30.05,SE,135,1.8,4.0,47,0.00,,,0.00,WUHU216HW,2013-06-03 17:50:00,
2013-06-03 10:55:00,60.5,39.5,30.05,SE,135,0.2,4.0,46,0.00,,,0.00,WUHU216HW,2013-06-03 17:55:00,
2013-06-03 11:00:00,60.7,39.1,30.05,East,90,0.4,3.4,45,0.00,,,0.00,WUHU216HW,2013-06-03 18:00:00,
2013-06-03 11:06:00,60.7,39.1,30.05,East,90,2.2,4.0,45,0.00,,,0.00,WUHU216HW,2013-06-03 18:06:00,
2013-06-03 11:11:00,61.0,39.4,30.05,SE,135,0.4,4.0,45,0.00,,,0.00,WUHU216HW,2013-06-03 18:11:00,
2013-06-03 11:16:00,61.6,32.7,30.05,NW,315,2.2,2.7,34,0.00,,,0.00,WUHU216HW,2013-06-03 18:16:00,
2013-06-03 11:21:00,61.7,37.2,30.05,North,0,0.9,2.7,40,0.00,,,0.00,WUHU216HW,2013-06-03 18:21:00,
2013-06-03 11:26:00,61.9,33.8,30.05,NW,315,0.9,2.7,35,0.00,,,0.00,WUHU216HW,2013-06-03 18:26:00,
2013-06-03 11:31:00,62.1,36.8,30.05,SE,135,1.8,4.0,39,0.00,,,0.00,WUHU216HW,2013-06-03 18:31:00,
2013-06-03 11:36:00,62.3,34.7,30.05,South,180,2.0,4.0,36,0.00,,,0.00,WUHU216HW,2013-06-03 18:36:00,
2013-06-03 11:41:00,62.8,35.3,30.05,SSW,203,2.2,3.4,36,0.00,,,0.00,WUHU216HW,2013-06-03 18:41:00,
2013-06-03 11:46:00,63.2,34.8,30.05,SSW,203,0.9,3.4,35,0.00,,,0.00,WUHU216HW,2013-06-03 18:46:00,
2013-06-03 11:51:00,63.7,36.1,30.05,WSW,248,0.2,6.7,36,0.00,,,0.00,WUHU216HW,2013-06-03 18:51:00,
2013-06-03 11:56:00,64.1,34.2,30.05,South,180,3.8,6.7,33,0.00,,,0.00,WUHU216HW,2013-06-03 18:56:00,
2013-06-03 12:01:00,64.4,35.3,30.05,SW,225,1.3,3.8,34,0.00,,,0.00,WUHU216HW,2013-06-03 19:01:00,
2013-06-03 12:06:00,64.4,30.4,30.05,NW,315,3.6,7.6,28,0.00,,,0.00,WUHU216HW,2013-06-03 19:06:00,
2013-06-03 12:11:00,64.1,31.1,30.05,SE,135,0.7,7.6,29,0.00,,,0.00,WUHU216HW,2013-06-03 19:11:00,
2013-06-03 12:16:00,64.6,32.6,30.05,North,0,1.3,6.3,30,0.00,,,0.00,WUHU216HW,2013-06-03 19:16:00,
2013-06-03 12:21:00,64.6,32.6,30.05,ENE,68,1.1,8.1,30,0.00,,,0.00,WUHU216HW,2013-06-03 19:21:00,
2013-06-03 12:26:00,64.8,32.8,30.05,NNE,23,4.0,8.1,30,0.00,,,0.00,WUHU216HW,2013-06-03 19:26:00,
2013-06-03 12:31:00,64.8,33.5,30.05,NE,45,1.6,5.4,31,0.00,,,0.00,WUHU216HW,2013-06-03 19:31:00,
2013-06-03 12:36:00,65.0,31.9,30.05,NNE,23,3.8,3.8,29,0.00,,,0.00,WUHU216HW,2013-06-03 19:36:00,
2013-06-03 12:41:00,65.3,33.9,30.04,SSW,203,4.0,5.1,31,0.00,,,0.00,WUHU216HW,2013-06-03 19:41:00,
2013-06-03 12:46:00,66.1,31.9,30.05,West,270,1.3,4.0,28,0.00,,,0.00,WUHU216HW,2013-06-03 19:46:00,
2013-06-03 12:52:00,66.2,29.0,30.05,NNW,338,2.5,4.3,25,0.00,,,0.00,WUHU216HW,2013-06-03 19:52:00,
2013-06-03 12:57:00,66.2,29.0,30.04,WSW,248,1.1,4.3,25,0.00,,,0.00,WUHU216HW,2013-06-03 19:57:00,
2013-06-03 13:02:00,66.4,32.1,30.04,North,0,5.4,5.4,28,0.00,,,0.00,WUHU216HW,2013-06-03 20:02:00,
2013-06-03 13:07:00,66.6,34.3,30.04,NNE,23,4.7,7.6,30,0.00,,,0.00,WUHU216HW,2013-06-03 20:07:00,
2013-06-03 13:12:00,66.8,35.2,30.04,SE,135,1.1,7.6,31,0.00,,,0.00,WUHU216HW,2013-06-03 20:12:00,
2013-06-03 13:17:00,67.0,36.1,30.04,South,180,3.6,3.6,32,0.00,,,0.00,WUHU216HW,2013-06-03 20:17:00,
2013-06-03 13:22:00,67.7,34.2,30.04,NW,315,1.8,4.0,29,0.00,,,0.00,WUHU216HW,2013-06-03 20:22:00,
2013-06-03 13:27:00,67.7,35.9,30.04,North,0,6.9,6.9,31,0.00,,,0.00,WUHU216HW,2013-06-03 20:27:00,
2013-06-03 13:32:00,67.9,36.1,30.04,NE,45,1.8,6.9,31,0.00,,,0.00,WUHU216HW,2013-06-03 20:32:00,
2013-06-03 13:37:00,68.0,33.5,30.04,NNE,23,3.4,6.7,28,0.00,,,0.00,WUHU216HW,2013-06-03 20:37:00,
2013-06-03 13:42:00,67.9,35.3,30.04,SSW,203,0.9,8.5,30,0.00,,,0.00,WUHU216HW,2013-06-03 20:42:00,
2013-06-03 13:47:00,68.2,34.7,30.04,South,180,2.5,8.5,29,0.00,,,0.00,WUHU216HW,2013-06-03 20:47:00,
2013-06-03 13:52:00,68.6,33.9,30.04,North,0,1.6,3.1,28,0.00,,,0.00,WUHU216HW,2013-06-03 20:52:00,
2013-06-03 13:57:00,69.1,35.5,30.04,ENE,68,5.4,5.4,29,0.00,,,0.00,WUHU216HW,2013-06-03 20:57:00,
2013-06-03 14:02:00,69.1,32.4,30.04,West,270,1.1,5.4,26,0.00,,,0.00,WUHU216HW,2013-06-03 21:02:00,
2013-06-03 14:07:00,69.1,31.4,30.04,ESE,113,5.1,5.1,25,0.00,,,0.00,WUHU216HW,2013-06-03 21:07:00,
2013-06-03 14:12:00,69.3,34.6,30.03,SE,135,2.2,5.1,28,0.00,,,0.00,WUHU216HW,2013-06-03 21:12:00,
2013-06-03 14:17:00,69.8,33.0,30.03,SE,135,2.2,5.6,26,0.00,,,0.00,WUHU216HW,2013-06-03 21:17:00,
2013-06-03 14:22:00,70.4,32.5,30.04,SE,135,2.0,5.6,25,0.00,,,0.00,WUHU216HW,2013-06-03 21:22:00,
2013-06-03 14:27:00,70.4,33.5,30.04,East,90,6.9,6.9,26,0.00,,,0.00,WUHU216HW,2013-06-03 21:27:00,
2013-06-03 14:32:00,70.2,32.3,30.04,ESE,113,1.3,6.9,25,0.00,,,0.00,WUHU216HW,2013-06-03 21:32:00,
2013-06-03 14:37:00,70.2,31.3,30.03,SSE,158,0.2,4.7,24,0.00,,,0.00,WUHU216HW,2013-06-03 21:37:00,
2013-06-03 14:42:00,70.4,33.5,30.03,East,90,4.3,4.3,26,0.00,,,0.00,WUHU216HW,2013-06-03 21:42:00,
2013-06-03 14:47:00,70.0,29.2,30.03,North,0,1.1,6.9,22,0.00,,,0.00,WUHU216HW,2013-06-03 21:47:00,
2013-06-03 14:52:00,70.0,31.1,30.03,North,0,2.5,6.9,24,0.00,,,0.00,WUHU216HW,2013-06-03 21:52:00,
2013-06-03 14:57:00,70.0,30.2,30.03,North,0,3.4,8.9,23,0.00,,,0.00,WUHU216HW,2013-06-03 21:57:00,
2013-06-03 15:02:00,69.8,31.1,30.03,ENE,68,1.1,8.9,24,0.00,,,0.00,WUHU216HW,2013-06-03 22:02:00,
2013-06-03 15:07:00,70.2,31.3,30.03,NW,315,4.0,4.0,24,0.00,,,0.00,WUHU216HW,2013-06-03 22:07:00,
2013-06-03 15:12:00,70.9,34.0,30.03,SSW,203,0.7,5.4,26,0.00,,,0.00,WUHU216HW,2013-06-03 22:12:00,
2013-06-03 15:17:00,71.3,33.3,30.03,ENE,68,4.7,6.7,25,0.00,,,0.00,WUHU216HW,2013-06-03 22:17:00,
2013-06-03 15:22:00,71.3,33.3,30.03,NE,45,4.0,6.9,25,0.00,,,0.00,WUHU216HW,2013-06-03 22:22:00,
2013-06-03 15:27:00,71.5,33.4,30.03,SE,135,1.1,6.9,25,0.00,,,0.00,WUHU216HW,2013-06-03 22:27:00,
2013-06-03 15:33:00,71.5,30.3,30.03,West,270,4.7,6.3,22,0.00,,,0.00,WUHU216HW,2013-06-03 22:33:00,
2013-06-03 15:38:00,71.3,34.3,30.03,ENE,68,2.5,6.3,26,0.00,,,0.00,WUHU216HW,2013-06-03 22:38:00,
2013-06-03 15:43:00,72.0,34.9,30.03,East,90,2.2,4.0,26,0.00,,,0.00,WUHU216HW,2013-06-03 22:43:00,
2013-06-03 15:48:00,73.1,34.8,30.02,ENE,68,1.8,6.5,25,0.00,,,0.00,WUHU216HW,2013-06-03 22:48:00,
2013-06-03 15:53:00,74.2,35.7,30.02,East,90,1.8,6.5,25,0.00,,,0.00,WUHU216HW,2013-06-03 22:53:00,
2013-06-03 15:58:00,74.9,36.4,30.02,South,180,3.6,6.3,25,0.00,,,0.00,WUHU216HW,2013-06-03 22:58:00,
2013-06-03 16:03:00,75.6,35.9,30.02,WNW,293,0.9,4.3,24,0.00,,,0.00,WUHU216HW,2013-06-03 23:03:00,
2013-06-03 16:08:00,75.4,36.8,30.02,ENE,68,5.1,7.8,25,0.00,,,0.00,WUHU216HW,2013-06-03 23:08:00,
2013-06-03 16:13:00,76.3,36.6,30.02,NNE,23,1.8,7.8,24,0.00,,,0.00,WUHU216HW,2013-06-03 23:13:00,
2013-06-03 16:18:00,77.9,37.8,30.02,NNW,338,2.5,4.0,24,0.00,,,0.00,WUHU216HW,2013-06-03 23:18:00,
2013-06-03 16:23:00,80.3,37.8,30.01,North,0,3.6,3.6,22,0.00,,,0.00,WUHU216HW,2013-06-03 23:23:00,
2013-06-03 16:28:00,80.6,38.1,30.02,NE,45,4.0,7.6,22,0.00,,,0.00,WUHU216HW,2013-06-03 23:28:00,
2013-06-03 16:33:00,79.9,37.4,30.02,SSE,158,1.3,7.6,22,0.00,,,0.00,WUHU216HW,2013-06-03 23:33:00,
2013-06-03 16:38:00,80.5,37.9,30.02,ESE,113,1.3,4.3,22,0.00,,,0.00,WUHU216HW,2013-06-03 23:38:00,
2013-06-03 16:43:00,82.1,38.2,30.02,NNE,23,2.5,3.4,21,0.00,,,0.00,WUHU216HW,2013-06-03 23:43:00,
2013-06-03 16:48:00,84.2,41.1,30.01,West,270,3.6,6.5,22,0.00,,,0.00,WUHU216HW,2013-06-03 23:48:00,
2013-06-03 16:53:00,84.8,37.6,30.01,ESE,113,1.8,6.5,19,0.00,,,0.00,WUHU216HW,2013-06-03 23:53:00,
2013-06-03 16:58:00,84.6,40.2,30.01,SE,135,2.7,4.0,21,0.00,,,0.00,WUHU216HW,2013-06-03 23:58:00,
2013-06-03 17:03:00,85.5,38.2,30.01,NNE,23,2.5,3.8,19,0.00,,,0.00,WUHU216HW,2013-06-04 00:03:00,
2013-06-03 17:08:00,85.0,40.5,30.01,SE,135,2.9,3.6,21,0.00,,,0.00,WUHU216HW,2013-06-04 00:08:00,
2013-06-03 17:13:00,86.4,40.7,30.01,ESE,113,2.5,2.9,20,0.00,,,0.00,WUHU216HW,2013-06-04 00:13:00,
2013-06-03 17:18:00,87.7,41.8,30.01,NNE,23,2.7,4.7,20,0.00,,,0.00,WUHU216HW,2013-06-04 00:18:00,
2013-06-03 17:23:00,84.6,34.0,30.01,NNW,338,2.5,4.7,17,0.00,,,0.00,WUHU216HW,2013-06-04 00:23:00,
2013-06-03 17:28:00,83.9,36.9,30.01,NW,315,2.5,3.8,19,0.00,,,0.00,WUHU216HW,2013-06-04 00:28:00,
2013-06-03 17:33:00,82.6,34.2,30.01,WNW,293,1.6,3.8,18,0.00,,,0.00,WUHU216HW,2013-06-04 00:33:00,
2013-06-03 17:38:00,82.4,38.5,30.01,East,90,2.7,3.1,21,0.00,,,0.00,WUHU216HW,2013-06-04 00:38:00,
2013-06-03 17:43:00,82.4,38.5,30.01,NNW,338,0.4,3.4,21,0.00,,,0.00,WUHU216HW,2013-06-04 00:43:00,
2013-06-03 17:48:00,80.8,37.2,30.01,SSW,203,2.9,3.4,21,0.00,,,0.00,WUHU216HW,2013-06-04 00:48:00,
2013-06-03 17:53:00,79.4,37.0,30.01,ENE,68,4.7,4.7,22,0.00,,,0.00,WUHU216HW,2013-06-04 00:53:00,
2013-06-03 17:58:00,77.9,36.8,30.01,East,90,2.0,5.4,23,0.00,,,0.00,WUHU216HW,2013-06-04 00:58:00,
2013-06-03 18:03:00,76.9,34.9,30.01,NE,45,2.2,6.3,22,0.00,,,0.00,WUHU216HW,2013-06-04 01:03:00,
2013-06-03 18:08:00,76.0,36.2,30.01,NE,45,5.4,6.3,24,0.00,,,0.00,WUHU216HW,2013-06-04 01:08:00,
2013-06-03 18:13:00,75.4,35.7,30.01,East,90,1.8,5.4,24,0.00,,,0.00,WUHU216HW,2013-06-04 01:13:00,
2013-06-03 18:18:00,74.5,36.0,30.01,ENE,68,3.6,4.7,25,0.00,,,0.00,WUHU216HW,2013-06-04 01:18:00,
2013-06-03 18:23:00,74.2,35.7,30.01,NE,45,2.5,7.6,25,0.00,,,0.00,WUHU216HW,2013-06-04 01:23:00,
2013-06-03 18:28:00,74.0,36.5,30.01,NE,45,0.7,7.6,26,0.00,,,0.00,WUHU216HW,2013-06-04 01:28:00,
2013-06-03 18:33:00,74.0,36.5,30.01,North,0,3.6,3.6,26,0.00,,,0.00,WUHU216HW,2013-06-04 01:33:00,
2013-06-03 18:38:00,74.2,35.7,30.01,South,180,2.2,4.7,25,0.00,,,0.00,WUHU216HW,2013-06-04 01:38:00,
2013-06-03 18:43:00,75.1,36.5,30.01,ENE,68,2.7,4.7,25,0.00,,,0.00,WUHU216HW,2013-06-04 01:43:00,
2013-06-03 18:49:00,76.1,37.4,30.01,WNW,293,0.7,4.0,25,0.00,,,0.00,WUHU216HW,2013-06-04 01:49:00,
2013-06-03 18:54:00,76.9,37.0,30.01,NNE,23,2.2,8.1,24,0.00,,,0.00,WUHU216HW,2013-06-04 01:54:00,
2013-06-03 18:59:00,76.9,37.0,30.01,NW,315,1.8,8.1,24,0.00,,,0.00,WUHU216HW,2013-06-04 01:59:00,
2013-06-03 19:04:00,75.8,37.1,30.01,ENE,68,2.5,3.8,25,0.00,,,0.00,WUHU216HW,2013-06-04 02:04:00,
2013-06-03 19:09:00,74.3,35.8,30.01,SE,135,1.6,4.5,25,0.00,,,0.00,WUHU216HW,2013-06-04 02:09:00,
2013-06-03 19:14:00,73.4,36.1,30.02,ENE,68,2.5,4.5,26,0.00,,,0.00,WUHU216HW,2013-06-04 02:14:00,
2013-06-03 19:19:00,72.9,35.6,30.02,WNW,293,0.9,4.0,26,0.00,,,0.00,WUHU216HW,2013-06-04 02:19:00,
2013-06-03 19:24:00,72.4,35.2,30.02,NE,45,1.3,3.6,26,0.00,,,0.00,WUHU216HW,2013-06-04 02:24:00,
2013-06-03 19:29:00,72.0,36.9,30.02,WNW,293,0.0,4.9,28,0.00,,,0.00,WUHU216HW,2013-06-04 02:29:00,
2013-06-03 19:34:00,71.5,36.5,30.03,NNE,23,0.0,4.9,28,0.00,,,0.00,WUHU216HW,2013-06-04 02:34:00,
2013-06-03 19:39:00,71.1,36.2,30.03,NE,45,1.3,3.4,28,0.00,,,0.00,WUHU216HW,2013-06-04 02:39:00,
2013-06-03 19:44:00,70.7,35.8,30.03,SE,135,0.9,1.8,28,0.00,,,0.00,WUHU216HW,2013-06-04 02:44:00,
2013-06-03 19:49:00,70.2,35.4,30.03,ENE,68,0.9,1.6,28,0.00,,,0.00,WUHU216HW,2013-06-04 02:49:00,
2013-06-03 19:54:00,69.8,36.1,30.03,ESE,113,0.7,3.1,29,0.00,,,0.00,WUHU216HW,2013-06-04 02:54:00,
2013-06-03 19:59:00,69.5,34.7,30.03,ENE,68,1.1,4.7,28,0.00,,,0.00,WUHU216HW,2013-06-04 02:59:00,
2013-06-03 20:04:00,68.9,34.3,30.03,NNE,23,0.2,4.7,28,0.00,,,0.00,WUHU216HW,2013-06-04 03:04:00,
2013-06-03 20:09:00,68.4,33.9,30.03,NNE,23,3.4,3.8,28,0.00,,,0.00,WUHU216HW,2013-06-04 03:09:00,
2013-06-03 20:14:00,67.9,34.3,30.04,NNE,23,3.6,3.6,29,0.00,,,0.00,WUHU216HW,2013-06-04 03:14:00,
2013-06-03 20:19:00,67.5,34.0,30.04,North,0,0.4,3.6,29,0.00,,,0.00,WUHU216HW,2013-06-04 03:19:00,
2013-06-03 20:24:00,67.0,33.6,30.04,SE,135,0.9,2.7,29,0.00,,,0.00,WUHU216HW,2013-06-04 03:24:00,
2013-06-03 20:29:00,66.8,33.5,30.04,East,90,0.0,3.4,29,0.00,,,0.00,WUHU216HW,2013-06-04 03:29:00,
2013-06-03 20:34:00,66.6,33.3,30.04,South,180,0.2,3.4,29,0.00,,,0.00,WUHU216HW,2013-06-04 03:34:00,
2013-06-03 20:39:00,66.2,34.0,30.04,NNE,23,0.0,1.1,30,0.00,,,0.00,WUHU216HW,2013-06-04 03:39:00,
2013-06-03 20:44:00,65.9,33.7,30.04,ESE,113,1.1,1.1,30,0.00,,,0.00,WUHU216HW,2013-06-04 03:44:00,
2013-06-03 20:49:00,65.3,32.2,30.04,North,0,1.1,2.0,29,0.00,,,0.00,WUHU216HW,2013-06-04 03:49:00,
2013-06-03 20:54:00,65.2,31.1,30.04,WNW,293,1.1,3.4,28,0.00,,,0.00,WUHU216HW,2013-06-04 03:54:00,
2013-06-03 20:59:00,65.0,30.9,30.04,NNE,23,1.8,5.1,28,0.00,,,0.00,WUHU216HW,2013-06-04 03:59:00,
2013-06-03 21:01:00,64.8,28.7,30.04,ENE,68,2.0,5.1,26,0.00,,,0.00,WUHU216HW,2013-06-04 04:01:00,
2013-06-03 21:06:00,64.6,30.6,30.04,ENE,68,0.7,4.9,28,0.00,,,0.00,WUHU216HW,2013-06-04 04:06:00,
2013-06-03 21:11:00,64.4,30.4,30.04,NE,45,1.8,1.8,28,0.00,,,0.00,WUHU216HW,2013-06-04 04:11:00,
2013-06-03 21:16:00,63.9,28.0,30.04,NNW,338,0.4,4.0,26,0.00,,,0.00,WUHU216HW,2013-06-04 04:16:00,
2013-06-03 21:21:00,63.7,27.8,30.05,East,90,0.4,4.0,26,0.00,,,0.00,WUHU216HW,2013-06-04 04:21:00,
2013-06-03 21:26:00,63.4,28.5,30.05,NNE,23,0.4,1.8,27,0.00,,,0.00,WUHU216HW,2013-06-04 04:26:00,
2013-06-03 21:31:00,63.2,28.4,30.05,NNW,338,0.4,1.1,27,0.00,,,0.00,WUHU216HW,2013-06-04 04:31:00,
2013-06-03 21:36:00,62.8,28.0,30.05,NE,45,1.3,1.8,27,0.00,,,0.00,WUHU216HW,2013-06-04 04:36:00,
2013-06-03 21:42:00,62.6,26.9,30.05,NW,315,0.4,1.8,26,0.00,,,0.00,WUHU216HW,2013-06-04 04:42:00,
2013-06-03 21:47:00,62.5,25.7,30.05,East,90,1.1,1.6,25,0.00,,,0.00,WUHU216HW,2013-06-04 04:47:00,
2013-06-03 21:52:00,62.3,27.5,30.06,NW,315,0.0,1.6,27,0.00,,,0.00,WUHU216HW,2013-06-04 04:52:00,
2013-06-03 21:57:00,62.1,28.4,30.06,North,0,1.1,1.1,28,0.00,,,0.00,WUHU216HW,2013-06-04 04:57:00,
2013-06-03 22:02:00,61.9,28.2,30.06,North,0,3.4,3.4,28,0.00,,,0.00,WUHU216HW,2013-06-04 05:02:00,
2013-06-03 22:07:00,61.6,28.9,30.06,North,0,2.5,3.4,29,0.00,,,0.00,WUHU216HW,2013-06-04 05:07:00,
2013-06-03 22:12:00,61.6,28.9,30.06,NE,45,0.9,3.4,29,0.00,,,0.00,WUHU216HW,2013-06-04 05:12:00,
2013-06-03 22:17:00,61.2,29.5,30.06,NNW,338,1.1,4.0,30,0.00,,,0.00,WUHU216HW,2013-06-04 05:17:00,
2013-06-03 22:22:00,60.8,29.2,30.06,ENE,68,2.5,4.0,30,0.00,,,0.00,WUHU216HW,2013-06-04 05:22:00,
2013-06-03 22:27:00,60.8,29.2,30.06,NNW,338,1.1,2.5,30,0.00,,,0.00,WUHU216HW,2013-06-04 05:27:00,
2013-06-03 22:32:00,60.8,29.9,30.06,NE,45,1.8,2.7,31,0.00,,,0.00,WUHU216HW,2013-06-04 05:32:00,
2013-06-03 22:37:00,60.7,29.7,30.05,ENE,68,3.4,3.8,31,0.00,,,0.00,WUHU216HW,2013-06-04 05:37:00,
2013-06-03 22:42:00,60.5,29.6,30.06,NNE,23,2.5,3.8,31,0.00,,,0.00,WUHU216HW,2013-06-04 05:42:00,
2013-06-03 22:47:00,60.5,30.3,30.06,East,90,2.0,2.7,32,0.00,,,0.00,WUHU216HW,2013-06-04 05:47:00,
2013-06-03 22:52:00,60.3,30.2,30.06,NNW,338,0.2,2.7,32,0.00,,,0.00,WUHU216HW,2013-06-04 05:52:00,
2013-06-03 22:57:00,59.9,29.9,30.06,ENE,68,2.0,2.5,32,0.00,,,0.00,WUHU216HW,2013-06-04 05:57:00,
2013-06-03 23:02:00,59.4,30.2,30.06,WSW,248,1.3,2.0,33,0.00,,,0.00,WUHU216HW,2013-06-04 06:02:00,
2013-06-03 23:07:00,58.9,29.7,30.07,SW,225,0.4,1.8,33,0.00,,,0.00,WUHU216HW,2013-06-04 06:07:00,
2013-06-03 23:12:00,58.7,29.5,30.07,West,270,1.3,1.3,33,0.00,,,0.00,WUHU216HW,2013-06-04 06:12:00,
2013-06-03 23:17:00,58.1,29.0,30.07,NNW,338,0.4,2.7,33,0.00,,,0.00,WUHU216HW,2013-06-04 06:17:00,
2013-06-03 23:22:00,58.0,29.5,30.07,SW,225,1.1,2.7,34,0.00,,,0.00,WUHU216HW,2013-06-04 06:22:00,
2013-06-03 23:27:00,57.4,29.8,30.07,West,270,2.9,2.9,35,0.00,,,0.00,WUHU216HW,2013-06-04 06:27:00,
2013-06-03 23:32:00,57.1,28.7,30.07,SSE,158,1.8,2.9,34,0.00,,,0.00,WUHU216HW,2013-06-04 06:32:00,
2013-06-03 23:37:00,56.9,29.3,30.07,SE,135,0.7,3.6,35,0.00,,,0.00,WUHU216HW,2013-06-04 06:37:00,
2013-06-03 23:42:00,56.5,29.7,30.07,NNE,23,0.0,3.6,36,0.00,,,0.00,WUHU216HW,2013-06-04 06:42:00,
2013-06-03 23:47:00,56.0,29.2,30.07,NW,315,1.6,1.6,36,0.00,,,0.00,WUHU216HW,2013-06-04 06:47:00,
2013-06-03 23:52:00,55.8,29.0,30.07,West,270,0.4,3.8,36,0.00,,,0.00,WUHU216HW,2013-06-04 06:52:00,
2013-06-03 23:57:00,56.0,28.4,30.07,ENE,68,0.7,4.3,35,0.00,,,0.00,WUHU216HW,2013-06-04 06:57:00,